sensor_id;sensor_type;location;lat;lon;timestamp;P1;durP1;ratioP1;P2;durP2;ratioP2
67278;SDS011;54193;53.746;10.058;2023-09-12T00:00:08;38.30;;;20.52;;
67278;SDS011;54193;53.746;10.058;2023-09-12T00:02:55;41.90;;;21.92;;
67278;SDS011;54193;53.746;10.058;2023-09-12T00:05:40;47.33;;;24.83;;
67278;SDS011;54193;53.746;10.058;2023-09-12T00:08:26;48.70;;;24.67;;
67278;SDS011;54193;53.746;10.058;2023-09-12T00:11:12;56.83;;;27.95;;
67278;SDS011;54193;53.746;10.058;2023-09-12T00:13:58;57.75;;;27.17;;
67278;SDS011;54193;53.746;10.058;2023-09-12T00:16:44;57.00;;;27.20;;
67278;SDS011;54193;53.746;10.058;2023-09-12T00:19:30;57.50;;;28.10;;
67278;SDS011;54193;53.746;10.058;2023-09-12T00:22:15;60.65;;;29.80;;
67278;SDS011;54193;53.746;10.058;2023-09-12T00:25:01;59.95;;;29.70;;
67278;SDS011;54193;53.746;10.058;2023-09-12T00:27:47;68.00;;;31.15;;
67278;SDS011;54193;53.746;10.058;2023-09-12T00:30:33;68.72;;;30.80;;
67278;SDS011;54193;53.746;10.058;2023-09-12T00:33:18;68.10;;;30.45;;
67278;SDS011;54193;53.746;10.058;2023-09-12T00:36:04;64.90;;;30.10;;
67278;SDS011;54193;53.746;10.058;2023-09-12T00:38:50;59.47;;;28.27;;
67278;SDS011;54193;53.746;10.058;2023-09-12T00:41:35;64.38;;;29.70;;
67278;SDS011;54193;53.746;10.058;2023-09-12T00:44:21;64.40;;;28.53;;
67278;SDS011;54193;53.746;10.058;2023-09-12T00:47:07;71.32;;;30.85;;
67278;SDS011;54193;53.746;10.058;2023-09-12T00:49:55;72.05;;;31.88;;
67278;SDS011;54193;53.746;10.058;2023-09-12T00:52:42;74.03;;;29.95;;
67278;SDS011;54193;53.746;10.058;2023-09-12T00:55:29;71.05;;;29.70;;
67278;SDS011;54193;53.746;10.058;2023-09-12T00:58:17;78.90;;;32.92;;
67278;SDS011;54193;53.746;10.058;2023-09-12T01:01:03;77.78;;;32.40;;
67278;SDS011;54193;53.746;10.058;2023-09-12T01:03:49;83.90;;;34.43;;
67278;SDS011;54193;53.746;10.058;2023-09-12T01:06:35;84.88;;;33.92;;
67278;SDS011;54193;53.746;10.058;2023-09-12T01:09:22;85.45;;;34.92;;
67278;SDS011;54193;53.746;10.058;2023-09-12T01:12:08;81.63;;;32.77;;
67278;SDS011;54193;53.746;10.058;2023-09-12T01:14:53;78.63;;;31.40;;
67278;SDS011;54193;53.746;10.058;2023-09-12T01:17:43;75.75;;;31.17;;
67278;SDS011;54193;53.746;10.058;2023-09-12T01:20:34;74.32;;;29.50;;
67278;SDS011;54193;53.746;10.058;2023-09-12T01:26:23;68.18;;;29.30;;
67278;SDS011;54193;53.746;10.058;2023-09-12T01:29:26;71.75;;;30.35;;
67278;SDS011;54193;53.746;10.058;2023-09-12T01:32:14;71.83;;;29.87;;
67278;SDS011;54193;53.746;10.058;2023-09-12T01:35:00;71.20;;;29.48;;
67278;SDS011;54193;53.746;10.058;2023-09-12T01:37:45;70.05;;;28.80;;
67278;SDS011;54193;53.746;10.058;2023-09-12T01:40:35;69.10;;;29.77;;
67278;SDS011;54193;53.746;10.058;2023-09-12T01:43:43;67.32;;;28.25;;
67278;SDS011;54193;53.746;10.058;2023-09-12T01:46:29;69.05;;;27.63;;
67278;SDS011;54193;53.746;10.058;2023-09-12T01:49:16;66.05;;;28.50;;
67278;SDS011;54193;53.746;10.058;2023-09-12T01:52:04;67.35;;;28.42;;
67278;SDS011;54193;53.746;10.058;2023-09-12T01:54:50;69.50;;;28.38;;
67278;SDS011;54193;53.746;10.058;2023-09-12T01:57:38;69.78;;;29.52;;
67278;SDS011;54193;53.746;10.058;2023-09-12T02:00:24;73.37;;;29.53;;
67278;SDS011;54193;53.746;10.058;2023-09-12T02:03:09;72.95;;;30.33;;
67278;SDS011;54193;53.746;10.058;2023-09-12T02:05:55;74.18;;;29.95;;
67278;SDS011;54193;53.746;10.058;2023-09-12T02:08:41;69.53;;;29.13;;
67278;SDS011;54193;53.746;10.058;2023-09-12T02:11:27;78.07;;;31.55;;
67278;SDS011;54193;53.746;10.058;2023-09-12T02:14:13;77.65;;;30.65;;
67278;SDS011;54193;53.746;10.058;2023-09-12T02:16:58;86.85;;;36.80;;
67278;SDS011;54193;53.746;10.058;2023-09-12T02:19:46;89.00;;;34.85;;
67278;SDS011;54193;53.746;10.058;2023-09-12T02:22:33;83.68;;;32.70;;
67278;SDS011;54193;53.746;10.058;2023-09-12T02:25:18;84.95;;;33.25;;
67278;SDS011;54193;53.746;10.058;2023-09-12T02:28:04;81.50;;;31.27;;
67278;SDS011;54193;53.746;10.058;2023-09-12T02:30:50;76.43;;;29.52;;
67278;SDS011;54193;53.746;10.058;2023-09-12T02:33:36;76.47;;;30.38;;
67278;SDS011;54193;53.746;10.058;2023-09-12T02:36:25;77.63;;;30.00;;
67278;SDS011;54193;53.746;10.058;2023-09-12T02:39:10;68.50;;;27.83;;
67278;SDS011;54193;53.746;10.058;2023-09-12T02:41:56;68.70;;;28.67;;
67278;SDS011;54193;53.746;10.058;2023-09-12T02:44:42;69.85;;;28.45;;
67278;SDS011;54193;53.746;10.058;2023-09-12T02:47:27;65.43;;;27.02;;
67278;SDS011;54193;53.746;10.058;2023-09-12T02:50:13;71.78;;;28.42;;
67278;SDS011;54193;53.746;10.058;2023-09-12T02:52:58;68.65;;;28.45;;
67278;SDS011;54193;53.746;10.058;2023-09-12T02:55:44;66.63;;;28.20;;
67278;SDS011;54193;53.746;10.058;2023-09-12T02:58:30;68.82;;;28.30;;
67278;SDS011;54193;53.746;10.058;2023-09-12T03:01:16;73.60;;;30.40;;
67278;SDS011;54193;53.746;10.058;2023-09-12T03:04:02;69.03;;;29.10;;
67278;SDS011;54193;53.746;10.058;2023-09-12T03:06:48;71.55;;;27.70;;
67278;SDS011;54193;53.746;10.058;2023-09-12T03:09:33;68.35;;;29.02;;
67278;SDS011;54193;53.746;10.058;2023-09-12T03:12:19;69.95;;;28.17;;
67278;SDS011;54193;53.746;10.058;2023-09-12T03:15:05;68.35;;;27.83;;
67278;SDS011;54193;53.746;10.058;2023-09-12T03:17:51;66.40;;;26.90;;
67278;SDS011;54193;53.746;10.058;2023-09-12T03:20:40;62.83;;;25.58;;
67278;SDS011;54193;53.746;10.058;2023-09-12T03:23:25;66.73;;;26.43;;
67278;SDS011;54193;53.746;10.058;2023-09-12T03:26:11;56.78;;;25.15;;
67278;SDS011;54193;53.746;10.058;2023-09-12T03:28:57;60.15;;;24.98;;
67278;SDS011;54193;53.746;10.058;2023-09-12T03:31:42;62.00;;;25.50;;
67278;SDS011;54193;53.746;10.058;2023-09-12T03:34:28;57.03;;;23.55;;
67278;SDS011;54193;53.746;10.058;2023-09-12T03:37:14;61.20;;;25.25;;
67278;SDS011;54193;53.746;10.058;2023-09-12T03:40:00;57.15;;;24.80;;
67278;SDS011;54193;53.746;10.058;2023-09-12T03:42:45;63.42;;;26.05;;
67278;SDS011;54193;53.746;10.058;2023-09-12T03:45:31;67.47;;;26.85;;
67278;SDS011;54193;53.746;10.058;2023-09-12T03:48:17;66.75;;;26.45;;
67278;SDS011;54193;53.746;10.058;2023-09-12T03:51:03;58.47;;;25.33;;
67278;SDS011;54193;53.746;10.058;2023-09-12T03:53:49;65.03;;;25.42;;
67278;SDS011;54193;53.746;10.058;2023-09-12T03:56:35;58.33;;;25.20;;
67278;SDS011;54193;53.746;10.058;2023-09-12T03:59:21;63.97;;;25.73;;
67278;SDS011;54193;53.746;10.058;2023-09-12T04:02:06;62.85;;;25.75;;
67278;SDS011;54193;53.746;10.058;2023-09-12T04:04:52;60.90;;;24.80;;
67278;SDS011;54193;53.746;10.058;2023-09-12T04:07:37;66.43;;;26.15;;
67278;SDS011;54193;53.746;10.058;2023-09-12T04:10:23;68.82;;;26.85;;
67278;SDS011;54193;53.746;10.058;2023-09-12T04:13:08;65.20;;;25.75;;
67278;SDS011;54193;53.746;10.058;2023-09-12T04:15:54;62.08;;;26.00;;
67278;SDS011;54193;53.746;10.058;2023-09-12T04:18:40;67.93;;;25.90;;
67278;SDS011;54193;53.746;10.058;2023-09-12T04:21:25;65.07;;;25.48;;
67278;SDS011;54193;53.746;10.058;2023-09-12T04:24:11;67.28;;;25.63;;
67278;SDS011;54193;53.746;10.058;2023-09-12T04:26:57;70.93;;;26.87;;
67278;SDS011;54193;53.746;10.058;2023-09-12T04:29:42;64.82;;;25.70;;
67278;SDS011;54193;53.746;10.058;2023-09-12T04:32:28;65.55;;;26.08;;
67278;SDS011;54193;53.746;10.058;2023-09-12T04:35:14;74.20;;;27.40;;
67278;SDS011;54193;53.746;10.058;2023-09-12T04:37:59;76.60;;;28.95;;
67278;SDS011;54193;53.746;10.058;2023-09-12T04:40:52;80.90;;;29.17;;
67278;SDS011;54193;53.746;10.058;2023-09-12T04:43:41;89.40;;;31.17;;
67278;SDS011;54193;53.746;10.058;2023-09-12T04:46:28;81.27;;;29.37;;
67278;SDS011;54193;53.746;10.058;2023-09-12T04:49:14;85.95;;;29.85;;
67278;SDS011;54193;53.746;10.058;2023-09-12T04:51:59;80.15;;;28.58;;
67278;SDS011;54193;53.746;10.058;2023-09-12T04:54:45;79.57;;;28.67;;
67278;SDS011;54193;53.746;10.058;2023-09-12T04:57:31;80.50;;;28.02;;
67278;SDS011;54193;53.746;10.058;2023-09-12T05:00:16;84.18;;;30.55;;
67278;SDS011;54193;53.746;10.058;2023-09-12T05:03:02;79.13;;;27.55;;
67278;SDS011;54193;53.746;10.058;2023-09-12T05:05:49;90.97;;;31.92;;
67278;SDS011;54193;53.746;10.058;2023-09-12T05:08:35;98.57;;;33.50;;
67278;SDS011;54193;53.746;10.058;2023-09-12T05:11:22;103.57;;;34.85;;
67278;SDS011;54193;53.746;10.058;2023-09-12T05:14:09;117.93;;;38.37;;
67278;SDS011;54193;53.746;10.058;2023-09-12T05:16:54;117.22;;;37.38;;
67278;SDS011;54193;53.746;10.058;2023-09-12T05:19:40;105.25;;;33.75;;
67278;SDS011;54193;53.746;10.058;2023-09-12T05:22:26;116.00;;;36.50;;
67278;SDS011;54193;53.746;10.058;2023-09-12T05:25:12;108.57;;;34.00;;
67278;SDS011;54193;53.746;10.058;2023-09-12T05:27:58;110.30;;;35.03;;
67278;SDS011;54193;53.746;10.058;2023-09-12T05:30:43;108.22;;;34.47;;
67278;SDS011;54193;53.746;10.058;2023-09-12T05:33:29;115.90;;;36.38;;
67278;SDS011;54193;53.746;10.058;2023-09-12T05:36:15;111.85;;;36.50;;
67278;SDS011;54193;53.746;10.058;2023-09-12T05:39:00;106.82;;;34.53;;
67278;SDS011;54193;53.746;10.058;2023-09-12T05:41:46;109.03;;;35.37;;
67278;SDS011;54193;53.746;10.058;2023-09-12T05:44:31;109.63;;;36.08;;
67278;SDS011;54193;53.746;10.058;2023-09-12T05:47:17;109.50;;;35.03;;
67278;SDS011;54193;53.746;10.058;2023-09-12T05:50:03;112.10;;;36.43;;
67278;SDS011;54193;53.746;10.058;2023-09-12T05:52:52;113.43;;;35.95;;
67278;SDS011;54193;53.746;10.058;2023-09-12T05:55:38;111.45;;;35.20;;
67278;SDS011;54193;53.746;10.058;2023-09-12T05:58:23;108.35;;;34.95;;
67278;SDS011;54193;53.746;10.058;2023-09-12T06:01:09;106.03;;;34.35;;
67278;SDS011;54193;53.746;10.058;2023-09-12T06:03:54;102.63;;;34.17;;
67278;SDS011;54193;53.746;10.058;2023-09-12T06:06:40;111.60;;;35.75;;
67278;SDS011;54193;53.746;10.058;2023-09-12T06:09:26;119.03;;;37.60;;
67278;SDS011;54193;53.746;10.058;2023-09-12T06:12:11;116.93;;;35.80;;
67278;SDS011;54193;53.746;10.058;2023-09-12T06:14:57;119.70;;;37.38;;
67278;SDS011;54193;53.746;10.058;2023-09-12T06:17:43;112.20;;;35.10;;
67278;SDS011;54193;53.746;10.058;2023-09-12T06:20:28;110.18;;;35.15;;
67278;SDS011;54193;53.746;10.058;2023-09-12T06:23:14;118.55;;;35.70;;
67278;SDS011;54193;53.746;10.058;2023-09-12T06:25:59;114.57;;;37.15;;
67278;SDS011;54193;53.746;10.058;2023-09-12T06:28:45;110.95;;;34.58;;
67278;SDS011;54193;53.746;10.058;2023-09-12T06:31:31;111.03;;;34.53;;
67278;SDS011;54193;53.746;10.058;2023-09-12T06:34:16;106.57;;;34.70;;
67278;SDS011;54193;53.746;10.058;2023-09-12T06:37:02;104.63;;;33.83;;
67278;SDS011;54193;53.746;10.058;2023-09-12T06:39:51;104.35;;;35.38;;
67278;SDS011;54193;53.746;10.058;2023-09-12T06:42:37;107.80;;;35.15;;
67278;SDS011;54193;53.746;10.058;2023-09-12T06:45:22;97.67;;;33.67;;
67278;SDS011;54193;53.746;10.058;2023-09-12T06:48:08;95.28;;;32.67;;
67278;SDS011;54193;53.746;10.058;2023-09-12T06:50:54;100.40;;;32.55;;
67278;SDS011;54193;53.746;10.058;2023-09-12T06:53:39;92.45;;;31.15;;
67278;SDS011;54193;53.746;10.058;2023-09-12T06:56:25;95.88;;;30.92;;
67278;SDS011;54193;53.746;10.058;2023-09-12T06:59:11;100.32;;;32.80;;
67278;SDS011;54193;53.746;10.058;2023-09-12T07:01:56;96.45;;;31.58;;
67278;SDS011;54193;53.746;10.058;2023-09-12T07:04:42;95.43;;;30.73;;
67278;SDS011;54193;53.746;10.058;2023-09-12T07:07:28;100.22;;;32.85;;
67278;SDS011;54193;53.746;10.058;2023-09-12T07:10:13;97.20;;;32.72;;
67278;SDS011;54193;53.746;10.058;2023-09-12T07:12:59;90.67;;;31.50;;
67278;SDS011;54193;53.746;10.058;2023-09-12T07:15:44;99.22;;;32.47;;
67278;SDS011;54193;53.746;10.058;2023-09-12T07:18:31;91.97;;;30.67;;
67278;SDS011;54193;53.746;10.058;2023-09-12T07:21:19;91.50;;;31.02;;
67278;SDS011;54193;53.746;10.058;2023-09-12T07:24:05;90.70;;;31.58;;
67278;SDS011;54193;53.746;10.058;2023-09-12T07:26:52;93.20;;;31.80;;
67278;SDS011;54193;53.746;10.058;2023-09-12T07:29:38;89.00;;;30.95;;
67278;SDS011;54193;53.746;10.058;2023-09-12T07:32:23;89.63;;;30.73;;
67278;SDS011;54193;53.746;10.058;2023-09-12T07:35:09;85.20;;;30.75;;
67278;SDS011;54193;53.746;10.058;2023-09-12T07:37:55;90.45;;;31.73;;
67278;SDS011;54193;53.746;10.058;2023-09-12T07:40:41;84.47;;;30.70;;
67278;SDS011;54193;53.746;10.058;2023-09-12T07:43:27;81.45;;;30.45;;
67278;SDS011;54193;53.746;10.058;2023-09-12T07:46:13;81.03;;;29.00;;
67278;SDS011;54193;53.746;10.058;2023-09-12T07:48:59;82.80;;;30.40;;
67278;SDS011;54193;53.746;10.058;2023-09-12T07:51:44;84.10;;;29.67;;
67278;SDS011;54193;53.746;10.058;2023-09-12T07:54:30;82.72;;;29.80;;
67278;SDS011;54193;53.746;10.058;2023-09-12T07:57:16;78.28;;;28.98;;
67278;SDS011;54193;53.746;10.058;2023-09-12T08:00:03;69.77;;;27.00;;
67278;SDS011;54193;53.746;10.058;2023-09-12T08:02:54;70.38;;;27.02;;
67278;SDS011;54193;53.746;10.058;2023-09-12T08:05:40;69.47;;;26.70;;
67278;SDS011;54193;53.746;10.058;2023-09-12T08:08:25;69.40;;;27.70;;
67278;SDS011;54193;53.746;10.058;2023-09-12T08:11:11;64.57;;;26.55;;
67278;SDS011;54193;53.746;10.058;2023-09-12T08:13:57;58.22;;;25.08;;
67278;SDS011;54193;53.746;10.058;2023-09-12T08:16:42;57.80;;;25.13;;
67278;SDS011;54193;53.746;10.058;2023-09-12T08:19:28;58.42;;;24.55;;
67278;SDS011;54193;53.746;10.058;2023-09-12T08:22:14;53.80;;;24.13;;
67278;SDS011;54193;53.746;10.058;2023-09-12T08:24:59;55.50;;;24.35;;
67278;SDS011;54193;53.746;10.058;2023-09-12T08:27:45;51.60;;;23.67;;
67278;SDS011;54193;53.746;10.058;2023-09-12T08:30:31;53.07;;;23.27;;
67278;SDS011;54193;53.746;10.058;2023-09-12T08:33:16;46.90;;;22.70;;
67278;SDS011;54193;53.746;10.058;2023-09-12T08:36:02;45.63;;;21.67;;
67278;SDS011;54193;53.746;10.058;2023-09-12T08:38:48;48.17;;;22.87;;
67278;SDS011;54193;53.746;10.058;2023-09-12T08:41:34;45.25;;;21.35;;
67278;SDS011;54193;53.746;10.058;2023-09-12T08:44:20;49.03;;;22.27;;
67278;SDS011;54193;53.746;10.058;2023-09-12T08:47:07;38.35;;;19.50;;
67278;SDS011;54193;53.746;10.058;2023-09-12T08:49:54;38.80;;;19.77;;
67278;SDS011;54193;53.746;10.058;2023-09-12T08:52:41;36.05;;;17.98;;
67278;SDS011;54193;53.746;10.058;2023-09-12T08:55:28;35.30;;;18.20;;
67278;SDS011;54193;53.746;10.058;2023-09-12T08:58:14;40.77;;;20.13;;
67278;SDS011;54193;53.746;10.058;2023-09-12T09:01:00;41.80;;;19.88;;
67278;SDS011;54193;53.746;10.058;2023-09-12T09:03:48;39.03;;;19.25;;
67278;SDS011;54193;53.746;10.058;2023-09-12T09:06:34;34.57;;;17.20;;
67278;SDS011;54193;53.746;10.058;2023-09-12T09:09:22;34.55;;;17.10;;
67278;SDS011;54193;53.746;10.058;2023-09-12T09:12:09;33.28;;;16.73;;
67278;SDS011;54193;53.746;10.058;2023-09-12T09:14:56;32.00;;;16.65;;
67278;SDS011;54193;53.746;10.058;2023-09-12T09:17:42;34.30;;;17.83;;
67278;SDS011;54193;53.746;10.058;2023-09-12T09:20:29;32.03;;;17.25;;
67278;SDS011;54193;53.746;10.058;2023-09-12T09:23:17;28.52;;;15.68;;
67278;SDS011;54193;53.746;10.058;2023-09-12T09:26:03;25.90;;;13.93;;
67278;SDS011;54193;53.746;10.058;2023-09-12T09:29:10;23.95;;;13.15;;
67278;SDS011;54193;53.746;10.058;2023-09-12T09:31:56;24.42;;;13.30;;
67278;SDS011;54193;53.746;10.058;2023-09-12T09:34:42;26.20;;;13.40;;
67278;SDS011;54193;53.746;10.058;2023-09-12T09:37:27;19.42;;;11.00;;
67278;SDS011;54193;53.746;10.058;2023-09-12T09:40:13;17.17;;;10.77;;
67278;SDS011;54193;53.746;10.058;2023-09-12T09:43:00;21.73;;;12.95;;
67278;SDS011;54193;53.746;10.058;2023-09-12T09:45:47;23.65;;;12.70;;
67278;SDS011;54193;53.746;10.058;2023-09-12T09:48:33;21.25;;;12.82;;
67278;SDS011;54193;53.746;10.058;2023-09-12T09:51:18;18.75;;;10.48;;
67278;SDS011;54193;53.746;10.058;2023-09-12T09:54:07;19.20;;;11.43;;
67278;SDS011;54193;53.746;10.058;2023-09-12T09:56:53;18.27;;;10.88;;
67278;SDS011;54193;53.746;10.058;2023-09-12T09:59:40;19.33;;;10.82;;
67278;SDS011;54193;53.746;10.058;2023-09-12T10:02:26;17.60;;;9.67;;
67278;SDS011;54193;53.746;10.058;2023-09-12T10:05:12;16.08;;;10.38;;
67278;SDS011;54193;53.746;10.058;2023-09-12T10:07:59;20.61;;;11.23;;
67278;SDS011;54193;53.746;10.058;2023-09-12T10:10:48;19.00;;;11.75;;
67278;SDS011;54193;53.746;10.058;2023-09-12T10:13:34;21.45;;;12.43;;
67278;SDS011;54193;53.746;10.058;2023-09-12T10:16:23;24.50;;;11.95;;
67278;SDS011;54193;53.746;10.058;2023-09-12T10:19:11;21.98;;;12.90;;
67278;SDS011;54193;53.746;10.058;2023-09-12T10:22:06;22.63;;;12.52;;
67278;SDS011;54193;53.746;10.058;2023-09-12T10:24:56;20.17;;;12.07;;
67278;SDS011;54193;53.746;10.058;2023-09-12T10:27:42;17.45;;;10.40;;
67278;SDS011;54193;53.746;10.058;2023-09-12T10:30:27;16.15;;;10.55;;
67278;SDS011;54193;53.746;10.058;2023-09-12T10:33:14;18.67;;;11.10;;
67278;SDS011;54193;53.746;10.058;2023-09-12T10:36:02;18.00;;;10.48;;
67278;SDS011;54193;53.746;10.058;2023-09-12T10:38:49;20.42;;;11.57;;
67278;SDS011;54193;53.746;10.058;2023-09-12T10:41:39;19.17;;;10.80;;
67278;SDS011;54193;53.746;10.058;2023-09-12T10:44:25;17.38;;;9.98;;
67278;SDS011;54193;53.746;10.058;2023-09-12T10:47:11;17.30;;;9.60;;
67278;SDS011;54193;53.746;10.058;2023-09-12T10:49:58;16.83;;;9.77;;
67278;SDS011;54193;53.746;10.058;2023-09-12T10:52:44;17.97;;;10.33;;
67278;SDS011;54193;53.746;10.058;2023-09-12T10:55:30;17.77;;;9.98;;
67278;SDS011;54193;53.746;10.058;2023-09-12T10:58:15;16.50;;;9.77;;
67278;SDS011;54193;53.746;10.058;2023-09-12T11:01:21;16.40;;;10.07;;
67278;SDS011;54193;53.746;10.058;2023-09-12T11:07:29;14.27;;;9.10;;
67278;SDS011;54193;53.746;10.058;2023-09-12T11:10:23;14.68;;;9.35;;
67278;SDS011;54193;53.746;10.058;2023-09-12T11:13:16;15.90;;;9.30;;
67278;SDS011;54193;53.746;10.058;2023-09-12T11:16:10;15.20;;;9.45;;
67278;SDS011;54193;53.746;10.058;2023-09-12T11:19:12;16.88;;;9.10;;
67278;SDS011;54193;53.746;10.058;2023-09-12T11:21:59;15.33;;;9.40;;
67278;SDS011;54193;53.746;10.058;2023-09-12T11:24:44;14.77;;;9.05;;
67278;SDS011;54193;53.746;10.058;2023-09-12T11:27:32;17.17;;;10.30;;
67278;SDS011;54193;53.746;10.058;2023-09-12T11:30:29;15.90;;;10.13;;
67278;SDS011;54193;53.746;10.058;2023-09-12T11:33:17;18.98;;;10.48;;
67278;SDS011;54193;53.746;10.058;2023-09-12T11:36:03;17.80;;;10.70;;
67278;SDS011;54193;53.746;10.058;2023-09-12T11:38:53;19.33;;;11.15;;
67278;SDS011;54193;53.746;10.058;2023-09-12T11:41:47;20.92;;;11.10;;
67278;SDS011;54193;53.746;10.058;2023-09-12T11:44:33;20.55;;;11.80;;
67278;SDS011;54193;53.746;10.058;2023-09-12T11:47:19;21.15;;;12.40;;
67278;SDS011;54193;53.746;10.058;2023-09-12T11:50:05;18.80;;;11.37;;
67278;SDS011;54193;53.746;10.058;2023-09-12T11:52:58;18.77;;;10.75;;
67278;SDS011;54193;53.746;10.058;2023-09-12T11:55:55;20.13;;;11.30;;
67278;SDS011;54193;53.746;10.058;2023-09-12T11:58:43;22.53;;;11.37;;
67278;SDS011;54193;53.746;10.058;2023-09-12T12:01:29;19.23;;;10.63;;
67278;SDS011;54193;53.746;10.058;2023-09-12T12:04:15;19.30;;;10.65;;
67278;SDS011;54193;53.746;10.058;2023-09-12T12:07:01;17.50;;;11.05;;
67278;SDS011;54193;53.746;10.058;2023-09-12T12:09:48;18.33;;;11.40;;
67278;SDS011;54193;53.746;10.058;2023-09-12T12:12:33;17.15;;;10.80;;
67278;SDS011;54193;53.746;10.058;2023-09-12T12:15:19;21.13;;;12.27;;
67278;SDS011;54193;53.746;10.058;2023-09-12T12:18:05;20.30;;;12.07;;
67278;SDS011;54193;53.746;10.058;2023-09-12T12:20:51;21.75;;;11.95;;
67278;SDS011;54193;53.746;10.058;2023-09-12T12:23:36;21.77;;;12.50;;
67278;SDS011;54193;53.746;10.058;2023-09-12T12:26:24;21.70;;;12.90;;
67278;SDS011;54193;53.746;10.058;2023-09-12T12:29:11;24.27;;;13.93;;
67278;SDS011;54193;53.746;10.058;2023-09-12T12:32:00;26.02;;;14.38;;
67278;SDS011;54193;53.746;10.058;2023-09-12T12:34:48;25.70;;;13.75;;
67278;SDS011;54193;53.746;10.058;2023-09-12T12:37:35;24.73;;;13.88;;
67278;SDS011;54193;53.746;10.058;2023-09-12T12:40:21;23.95;;;13.75;;
67278;SDS011;54193;53.746;10.058;2023-09-12T12:43:15;23.33;;;13.98;;
67278;SDS011;54193;53.746;10.058;2023-09-12T12:46:02;24.00;;;13.80;;
67278;SDS011;54193;53.746;10.058;2023-09-12T12:48:48;26.45;;;14.80;;
67278;SDS011;54193;53.746;10.058;2023-09-12T12:51:33;25.02;;;14.50;;
67278;SDS011;54193;53.746;10.058;2023-09-12T12:54:21;28.37;;;14.83;;
67278;SDS011;54193;53.746;10.058;2023-09-12T12:57:08;24.73;;;13.88;;
67278;SDS011;54193;53.746;10.058;2023-09-12T12:59:58;26.67;;;15.10;;
67278;SDS011;54193;53.746;10.058;2023-09-12T13:02:48;26.80;;;14.90;;
67278;SDS011;54193;53.746;10.058;2023-09-12T13:05:33;24.13;;;14.25;;
67278;SDS011;54193;53.746;10.058;2023-09-12T13:08:19;25.93;;;14.90;;
67278;SDS011;54193;53.746;10.058;2023-09-12T13:11:05;24.65;;;14.15;;
67278;SDS011;54193;53.746;10.058;2023-09-12T13:13:50;24.58;;;14.98;;
67278;SDS011;54193;53.746;10.058;2023-09-12T13:16:37;22.87;;;13.37;;
67278;SDS011;54193;53.746;10.058;2023-09-12T13:19:25;25.45;;;14.45;;
67278;SDS011;54193;53.746;10.058;2023-09-12T13:22:11;24.55;;;14.75;;
67278;SDS011;54193;53.746;10.058;2023-09-12T13:24:56;24.93;;;14.30;;
67278;SDS011;54193;53.746;10.058;2023-09-12T13:27:43;24.25;;;14.27;;
67278;SDS011;54193;53.746;10.058;2023-09-12T13:30:28;27.00;;;15.10;;
67278;SDS011;54193;53.746;10.058;2023-09-12T13:33:14;27.77;;;15.02;;
67278;SDS011;54193;53.746;10.058;2023-09-12T13:36:03;26.65;;;14.73;;
67278;SDS011;54193;53.746;10.058;2023-09-12T13:38:49;26.90;;;14.73;;
67278;SDS011;54193;53.746;10.058;2023-09-12T13:41:36;25.20;;;15.32;;
67278;SDS011;54193;53.746;10.058;2023-09-12T13:44:22;25.33;;;14.57;;
67278;SDS011;54193;53.746;10.058;2023-09-12T13:47:08;23.58;;;13.77;;
67278;SDS011;54193;53.746;10.058;2023-09-12T13:49:53;24.15;;;14.05;;
67278;SDS011;54193;53.746;10.058;2023-09-12T13:52:39;26.67;;;14.50;;
67278;SDS011;54193;53.746;10.058;2023-09-12T13:55:25;28.98;;;16.20;;
67278;SDS011;54193;53.746;10.058;2023-09-12T13:58:10;30.45;;;15.95;;
67278;SDS011;54193;53.746;10.058;2023-09-12T14:00:56;30.02;;;15.95;;
67278;SDS011;54193;53.746;10.058;2023-09-12T14:03:41;31.23;;;17.00;;
67278;SDS011;54193;53.746;10.058;2023-09-12T14:06:27;32.92;;;18.08;;
67278;SDS011;54193;53.746;10.058;2023-09-12T14:09:13;36.25;;;18.75;;
67278;SDS011;54193;53.746;10.058;2023-09-12T14:12:00;32.23;;;17.43;;
67278;SDS011;54193;53.746;10.058;2023-09-12T14:14:46;32.03;;;16.67;;
67278;SDS011;54193;53.746;10.058;2023-09-12T14:17:33;31.33;;;16.48;;
67278;SDS011;54193;53.746;10.058;2023-09-12T14:20:18;27.13;;;14.50;;
67278;SDS011;54193;53.746;10.058;2023-09-12T14:23:04;27.90;;;14.75;;
67278;SDS011;54193;53.746;10.058;2023-09-12T14:25:50;30.75;;;16.15;;
67278;SDS011;54193;53.746;10.058;2023-09-12T14:28:36;26.75;;;13.43;;
67278;SDS011;54193;53.746;10.058;2023-09-12T14:31:22;28.92;;;16.02;;
67278;SDS011;54193;53.746;10.058;2023-09-12T14:34:08;27.83;;;15.40;;
67278;SDS011;54193;53.746;10.058;2023-09-12T14:36:54;27.50;;;14.82;;
67278;SDS011;54193;53.746;10.058;2023-09-12T14:39:40;26.10;;;14.93;;
67278;SDS011;54193;53.746;10.058;2023-09-12T14:42:26;28.00;;;15.15;;
67278;SDS011;54193;53.746;10.058;2023-09-12T14:45:14;28.73;;;15.68;;
67278;SDS011;54193;53.746;10.058;2023-09-12T14:48:00;29.27;;;15.90;;
67278;SDS011;54193;53.746;10.058;2023-09-12T14:50:45;32.08;;;16.77;;
67278;SDS011;54193;53.746;10.058;2023-09-12T14:53:34;30.00;;;16.98;;
67278;SDS011;54193;53.746;10.058;2023-09-12T14:56:20;31.40;;;17.08;;
67278;SDS011;54193;53.746;10.058;2023-09-12T14:59:05;28.80;;;16.02;;
67278;SDS011;54193;53.746;10.058;2023-09-12T15:01:51;29.15;;;16.83;;
67278;SDS011;54193;53.746;10.058;2023-09-12T15:04:37;27.90;;;16.63;;
67278;SDS011;54193;53.746;10.058;2023-09-12T15:07:23;31.50;;;17.13;;
67278;SDS011;54193;53.746;10.058;2023-09-12T15:10:09;28.15;;;16.42;;
67278;SDS011;54193;53.746;10.058;2023-09-12T15:12:55;26.02;;;15.48;;
67278;SDS011;54193;53.746;10.058;2023-09-12T15:15:40;28.27;;;15.27;;
67278;SDS011;54193;53.746;10.058;2023-09-12T15:18:26;24.15;;;12.82;;
67278;SDS011;54193;53.746;10.058;2023-09-12T15:21:12;30.67;;;16.23;;
67278;SDS011;54193;53.746;10.058;2023-09-12T15:23:57;28.08;;;16.05;;
67278;SDS011;54193;53.746;10.058;2023-09-12T15:26:43;26.38;;;15.65;;
67278;SDS011;54193;53.746;10.058;2023-09-12T15:29:28;28.63;;;17.60;;
67278;SDS011;54193;53.746;10.058;2023-09-12T15:32:14;26.25;;;15.43;;
67278;SDS011;54193;53.746;10.058;2023-09-12T15:35:00;27.93;;;15.60;;
67278;SDS011;54193;53.746;10.058;2023-09-12T15:37:45;25.95;;;14.85;;
67278;SDS011;54193;53.746;10.058;2023-09-12T15:40:31;26.35;;;15.40;;
67278;SDS011;54193;53.746;10.058;2023-09-12T15:43:17;26.13;;;15.47;;
67278;SDS011;54193;53.746;10.058;2023-09-12T15:46:03;26.02;;;15.27;;
67278;SDS011;54193;53.746;10.058;2023-09-12T15:48:49;27.27;;;15.18;;
67278;SDS011;54193;53.746;10.058;2023-09-12T15:51:34;26.85;;;15.75;;
67278;SDS011;54193;53.746;10.058;2023-09-12T15:54:20;24.92;;;15.30;;
67278;SDS011;54193;53.746;10.058;2023-09-12T15:57:05;25.65;;;15.45;;
67278;SDS011;54193;53.746;10.058;2023-09-12T15:59:51;26.95;;;15.57;;
67278;SDS011;54193;53.746;10.058;2023-09-12T16:02:37;26.27;;;15.10;;
67278;SDS011;54193;53.746;10.058;2023-09-12T16:05:23;25.35;;;15.18;;